createdAt,value
2023-05-13T00:00:11.096Z,73.10
2023-05-13T00:01:11.085Z,73.18
2023-05-13T00:02:12.141Z,73.17
2023-05-13T00:03:11.133Z,73.16
2023-05-13T00:04:12.107Z,73.35
2023-05-13T00:05:11.097Z,73.32
2023-05-13T00:06:12.149Z,73.49
2023-05-13T00:07:11.093Z,73.45
2023-05-13T00:08:11.098Z,73.36
2023-05-13T00:09:11.084Z,73.41
2023-05-13T00:10:11.081Z,73.42
2023-05-13T00:11:11.088Z,73.50
2023-05-13T00:12:11.099Z,73.40
2023-05-13T00:13:11.079Z,73.37
2023-05-13T00:14:13.094Z,73.36
2023-05-13T00:15:11.090Z,73.43
2023-05-13T00:16:11.096Z,73.73
2023-05-13T00:17:11.092Z,73.63
2023-05-13T00:18:11.083Z,73.52
2023-05-13T00:19:11.112Z,73.57
2023-05-13T00:20:11.082Z,73.52
2023-05-13T00:21:11.081Z,73.48
2023-05-13T00:22:11.089Z,73.60
2023-05-13T00:23:11.095Z,73.60
2023-05-13T00:24:11.085Z,73.64
2023-05-13T00:25:11.087Z,73.46
2023-05-13T00:26:11.100Z,73.47
2023-05-13T00:27:11.084Z,73.47
2023-05-13T00:28:11.088Z,73.49
2023-05-13T00:29:11.097Z,73.38
2023-05-13T00:30:11.082Z,73.44
2023-05-13T00:31:11.107Z,73.50
2023-05-13T00:32:11.092Z,73.51
2023-05-13T00:33:11.082Z,73.35
2023-05-13T00:34:11.092Z,73.35
2023-05-13T00:35:11.107Z,73.60
2023-05-13T00:36:11.084Z,73.61
2023-05-13T00:37:11.090Z,73.49
2023-05-13T00:38:11.101Z,73.55
2023-05-13T00:39:11.087Z,73.58
2023-05-13T00:40:19.408Z,73.45
2023-05-13T00:41:11.100Z,73.43
2023-05-13T00:42:11.090Z,73.42
2023-05-13T00:43:11.090Z,73.37
2023-05-13T00:44:12.674Z,73.33
2023-05-13T00:45:11.087Z,73.38
2023-05-13T00:46:11.138Z,73.67
2023-05-13T00:47:12.104Z,73.63
2023-05-13T00:48:11.092Z,73.63
2023-05-13T00:49:11.092Z,73.71
2023-05-13T00:50:11.095Z,73.58
2023-05-13T00:51:11.084Z,73.47
2023-05-13T00:52:11.100Z,73.64
2023-05-13T00:53:11.088Z,73.57
2023-05-13T00:54:11.089Z,73.52
2023-05-13T00:55:11.088Z,73.56
2023-05-13T00:56:11.089Z,73.55
2023-05-13T00:57:11.094Z,73.48
2023-05-13T00:58:11.089Z,73.80
2023-05-13T00:59:11.089Z,73.88
2023-05-13T01:00:11.089Z,73.81
2023-05-13T01:01:19.106Z,73.91
2023-05-13T01:02:19.115Z,73.84
2023-05-13T01:03:18.089Z,73.81
2023-05-13T01:04:19.061Z,73.87
2023-05-13T01:05:19.066Z,73.91
2023-05-13T01:06:17.058Z,73.90
2023-05-13T01:07:19.058Z,74.07
2023-05-13T01:08:19.052Z,74.02
2023-05-13T01:09:19.068Z,74.21
2023-05-13T01:10:21.246Z,74.17
2023-05-13T01:11:14.059Z,74.30
2023-05-13T01:12:16.074Z,74.52
2023-05-13T01:13:12.062Z,74.50
2023-05-13T01:14:21.064Z,74.50
2023-05-13T01:15:12.062Z,74.60
2023-05-13T01:16:19.091Z,74.44
2023-05-13T01:17:14.070Z,74.34
2023-05-13T01:18:20.070Z,74.25
2023-05-13T01:19:21.060Z,74.25
2023-05-13T01:20:11.055Z,74.24
2023-05-13T01:21:11.063Z,74.46
2023-05-13T01:22:11.055Z,74.41
2023-05-13T01:23:13.071Z,74.41
2023-05-13T01:24:11.138Z,74.39
2023-05-13T01:25:11.069Z,74.44
2023-05-13T01:26:11.056Z,74.37
2023-05-13T01:27:11.075Z,74.29
2023-05-13T01:28:11.063Z,74.35
2023-05-13T01:29:11.056Z,74.32
2023-05-13T01:30:11.062Z,74.30
2023-05-13T01:31:11.146Z,74.35
2023-05-13T01:32:11.053Z,74.46
2023-05-13T01:33:11.230Z,74.57
2023-05-13T01:34:11.068Z,74.55
2023-05-13T01:35:11.056Z,74.60
2023-05-13T01:36:11.057Z,74.73
2023-05-13T01:37:11.074Z,74.73
2023-05-13T01:38:11.069Z,74.73
2023-05-13T01:39:11.062Z,74.69
2023-05-13T01:40:20.446Z,74.68
2023-05-13T01:41:13.058Z,74.61
2023-05-13T01:42:11.061Z,74.50
2023-05-13T01:43:11.066Z,74.48
2023-05-13T01:44:11.059Z,74.63
2023-05-13T01:45:11.051Z,74.68
2023-05-13T01:46:13.120Z,74.66
2023-05-13T01:47:11.060Z,74.74
2023-05-13T01:48:11.064Z,74.62
2023-05-13T01:49:11.076Z,74.65
2023-05-13T01:50:11.068Z,74.69
2023-05-13T01:51:11.060Z,74.65
2023-05-13T01:52:11.066Z,74.88
2023-05-13T01:53:11.070Z,74.84
2023-05-13T01:54:11.060Z,74.85
2023-05-13T01:55:11.076Z,74.80
2023-05-13T01:56:13.077Z,74.98
2023-05-13T01:57:11.070Z,75.00
2023-05-13T01:58:11.053Z,75.06
2023-05-13T01:59:11.063Z,74.91
2023-05-13T02:00:11.061Z,75.00
2023-05-13T02:01:11.059Z,74.99
2023-05-13T02:02:11.153Z,74.95
2023-05-13T02:03:11.167Z,74.90
2023-05-13T02:04:11.063Z,74.88
2023-05-13T02:05:11.069Z,74.84
2023-05-13T02:06:11.061Z,74.81
2023-05-13T02:07:11.058Z,74.78
2023-05-13T02:08:11.062Z,74.86
2023-05-13T02:09:11.071Z,74.75
2023-05-13T02:10:11.061Z,74.70
2023-05-13T02:11:11.059Z,74.78
2023-05-13T02:12:11.066Z,74.69
2023-05-13T02:13:11.065Z,74.66
2023-05-13T02:14:11.078Z,74.73
2023-05-13T02:15:11.066Z,74.72
2023-05-13T02:16:11.091Z,74.68
2023-05-13T02:17:11.062Z,74.71
2023-05-13T02:18:11.093Z,74.77
2023-05-13T02:19:11.161Z,74.79
2023-05-13T02:20:11.065Z,74.80
2023-05-13T02:21:11.072Z,74.89
2023-05-13T02:22:11.063Z,75.01
2023-05-13T02:23:11.063Z,74.92
2023-05-13T02:24:11.069Z,74.80
2023-05-13T02:25:11.063Z,74.85
2023-05-13T02:26:11.077Z,74.69
2023-05-13T02:27:11.069Z,74.74
2023-05-13T02:28:11.071Z,74.82
2023-05-13T02:29:11.078Z,74.90
2023-05-13T02:30:11.065Z,74.83
2023-05-13T02:31:11.068Z,75.04
2023-05-13T02:32:11.087Z,75.07
2023-05-13T02:33:11.136Z,75.01
2023-05-13T02:34:11.075Z,75.03
2023-05-13T02:35:11.065Z,75.15
2023-05-13T02:36:11.083Z,75.07
2023-05-13T02:37:11.063Z,75.07
2023-05-13T02:38:11.061Z,75.23
2023-05-13T02:39:11.068Z,75.26
2023-05-13T02:40:11.093Z,75.24
2023-05-13T02:41:11.070Z,75.28
2023-05-13T02:42:11.076Z,75.44
2023-05-13T02:43:11.070Z,75.30
2023-05-13T02:44:11.067Z,75.19
2023-05-13T02:45:11.080Z,75.17
2023-05-13T02:46:11.163Z,75.17
2023-05-13T02:47:11.069Z,75.41
2023-05-13T02:48:11.078Z,75.62
2023-05-13T02:49:11.070Z,75.63
2023-05-13T02:50:11.064Z,75.61
2023-05-13T02:51:11.069Z,75.52
2023-05-13T02:52:11.077Z,75.44
2023-05-13T02:53:11.071Z,75.56
2023-05-13T02:54:11.079Z,75.64
2023-05-13T02:55:11.095Z,75.63
2023-05-13T02:56:11.072Z,75.49
2023-05-13T02:57:11.074Z,75.61
2023-05-13T02:58:11.081Z,75.41
2023-05-13T02:59:11.080Z,75.25
2023-05-13T03:00:11.090Z,75.23
2023-05-13T03:01:11.088Z,75.12
2023-05-13T03:02:11.104Z,75.07
2023-05-13T03:03:11.143Z,75.13
2023-05-13T03:04:11.078Z,74.97
2023-05-13T03:05:11.068Z,75.10
2023-05-13T03:06:11.074Z,75.17
2023-05-13T03:07:11.079Z,75.24
2023-05-13T03:08:11.068Z,75.17
2023-05-13T03:09:11.075Z,75.22
2023-05-13T03:10:11.081Z,75.12
2023-05-13T03:11:11.083Z,75.26
2023-05-13T03:12:11.073Z,75.28
2023-05-13T03:13:11.081Z,75.26
2023-05-13T03:14:11.090Z,75.21
2023-05-13T03:15:11.074Z,75.30
2023-05-13T03:16:11.099Z,75.43
2023-05-13T03:17:11.082Z,75.43
2023-05-13T03:18:11.079Z,75.33
2023-05-13T03:19:11.243Z,75.37
2023-05-13T03:20:11.075Z,75.30
2023-05-13T03:21:11.080Z,75.20
2023-05-13T03:22:11.079Z,75.08
2023-05-13T03:23:11.084Z,75.05
2023-05-13T03:24:11.072Z,75.04
2023-05-13T03:25:11.080Z,75.04
2023-05-13T03:26:11.084Z,75.05
2023-05-13T03:27:11.070Z,75.13
2023-05-13T03:28:11.075Z,75.13
2023-05-13T03:29:11.073Z,75.20
2023-05-13T03:30:11.115Z,75.44
2023-05-13T03:31:11.131Z,75.30
2023-05-13T03:32:11.073Z,75.23
2023-05-13T03:33:11.075Z,75.26
2023-05-13T03:34:11.073Z,75.22
2023-05-13T03:35:11.075Z,75.70
2023-05-13T03:36:11.070Z,75.55
2023-05-13T03:37:11.078Z,75.51
2023-05-13T03:38:11.083Z,75.52
2023-05-13T03:39:11.071Z,75.49
2023-05-13T03:40:11.074Z,75.57
2023-05-13T03:41:11.079Z,75.54
2023-05-13T03:42:11.079Z,75.49
2023-05-13T03:43:11.090Z,75.60
2023-05-13T03:44:11.075Z,75.54
2023-05-13T03:45:11.077Z,75.67
2023-05-13T03:46:11.115Z,75.62
2023-05-13T03:47:11.115Z,75.55
2023-05-13T03:48:11.107Z,75.55
2023-05-13T03:49:11.083Z,75.60
2023-05-13T03:50:11.078Z,75.58
2023-05-13T03:51:11.071Z,75.55
2023-05-13T03:52:13.091Z,75.54
2023-05-13T03:53:11.075Z,75.55
2023-05-13T03:54:11.075Z,75.50
2023-05-13T03:55:11.076Z,75.51
2023-05-13T03:56:11.080Z,75.50
2023-05-13T03:57:11.083Z,75.49
2023-05-13T03:58:13.082Z,75.49
2023-05-13T03:59:11.085Z,75.36
2023-05-13T04:00:11.075Z,75.30
2023-05-13T04:01:11.069Z,75.42
2023-05-13T04:02:11.112Z,75.38
2023-05-13T04:03:11.102Z,75.56
2023-05-13T04:04:11.073Z,75.65
2023-05-13T04:05:11.162Z,75.57
2023-05-13T04:06:11.065Z,75.64
2023-05-13T04:07:11.063Z,75.83
2023-05-13T04:08:11.073Z,75.86
2023-05-13T04:09:11.072Z,75.81
2023-05-13T04:10:13.747Z,75.80
2023-05-13T04:11:11.064Z,75.75
2023-05-13T04:12:11.070Z,75.63
2023-05-13T04:13:11.076Z,75.63
2023-05-13T04:14:11.070Z,75.65
2023-05-13T04:15:11.071Z,75.67
2023-05-13T04:16:11.065Z,75.63
2023-05-13T04:17:11.199Z,75.62
2023-05-13T04:18:11.089Z,75.92
2023-05-13T04:19:11.195Z,76.03
2023-05-13T04:20:11.076Z,75.89
2023-05-13T04:21:11.077Z,76.04
2023-05-13T04:22:11.086Z,76.05
2023-05-13T04:23:11.066Z,76.11
2023-05-13T04:24:11.074Z,76.16
2023-05-13T04:25:11.080Z,76.22
2023-05-13T04:26:11.076Z,76.33
2023-05-13T04:27:11.070Z,76.39
2023-05-13T04:28:11.068Z,76.31
2023-05-13T04:29:11.069Z,76.29
2023-05-13T04:30:11.079Z,76.42
2023-05-13T04:31:11.077Z,76.57
2023-05-13T04:32:11.202Z,76.62
2023-05-13T04:33:11.111Z,76.66
2023-05-13T04:34:11.085Z,76.63
2023-05-13T04:35:11.071Z,76.65
2023-05-13T04:36:12.403Z,76.66
2023-05-13T04:37:11.077Z,76.58
2023-05-13T04:38:11.075Z,76.37
2023-05-13T04:39:11.064Z,76.38
2023-05-13T04:40:11.072Z,76.40
2023-05-13T04:41:11.076Z,76.44
2023-05-13T04:42:11.083Z,76.41
2023-05-13T04:43:11.069Z,76.44
2023-05-13T04:44:11.069Z,76.37
2023-05-13T04:45:11.089Z,76.60
2023-05-13T04:46:11.093Z,76.60
2023-05-13T04:47:11.071Z,76.72
2023-05-13T04:48:11.121Z,76.90
2023-05-13T04:49:11.070Z,76.79
2023-05-13T04:50:11.080Z,76.94
2023-05-13T04:51:11.071Z,76.95
2023-05-13T04:52:11.071Z,76.99
2023-05-13T04:53:11.071Z,76.88
2023-05-13T04:54:11.069Z,76.85
2023-05-13T04:55:13.072Z,76.83
2023-05-13T04:56:11.084Z,76.72
2023-05-13T04:57:11.068Z,76.79
2023-05-13T04:58:11.081Z,76.93
2023-05-13T04:59:11.106Z,76.73
2023-05-13T05:00:11.071Z,76.62
2023-05-13T05:01:11.099Z,76.62
2023-05-13T05:02:11.085Z,76.94
2023-05-13T05:03:11.071Z,76.81
2023-05-13T05:04:11.085Z,76.87
2023-05-13T05:05:11.076Z,76.89
2023-05-13T05:06:11.073Z,76.88
2023-05-13T05:07:11.069Z,76.86
2023-05-13T05:08:11.081Z,76.80
2023-05-13T05:09:11.074Z,76.76
2023-05-13T05:10:11.096Z,76.60
2023-05-13T05:11:11.099Z,76.58
2023-05-13T05:12:11.077Z,76.49
2023-05-13T05:13:11.095Z,76.54
2023-05-13T05:14:11.072Z,76.46
2023-05-13T05:15:11.079Z,76.35
2023-05-13T05:16:11.086Z,76.48
2023-05-13T05:17:11.089Z,76.50
2023-05-13T05:18:11.168Z,76.42
2023-05-13T05:19:11.122Z,76.43
2023-05-13T05:20:11.086Z,76.74
2023-05-13T05:21:11.075Z,76.82
2023-05-13T05:22:11.075Z,76.75
2023-05-13T05:23:11.076Z,76.77
2023-05-13T05:24:11.083Z,76.79
2023-05-13T05:25:11.078Z,76.86
2023-05-13T05:26:12.408Z,76.80
2023-05-13T05:27:11.084Z,76.61
2023-05-13T05:28:11.090Z,76.59
2023-05-13T05:29:11.075Z,76.68
2023-05-13T05:30:11.090Z,76.68
2023-05-13T05:31:11.091Z,76.76
2023-05-13T05:32:11.074Z,76.87
2023-05-13T05:33:11.087Z,76.70
2023-05-13T05:34:11.078Z,76.77
2023-05-13T05:35:11.075Z,76.66
2023-05-13T05:36:11.080Z,76.54
2023-05-13T05:37:11.079Z,76.69
2023-05-13T05:38:11.074Z,76.77
2023-05-13T05:39:11.081Z,76.67
2023-05-13T05:40:11.074Z,76.71
2023-05-13T05:41:11.084Z,76.79
2023-05-13T05:42:11.078Z,76.88
2023-05-13T05:43:11.114Z,76.80
2023-05-13T05:44:11.076Z,76.96
2023-05-13T05:45:11.080Z,76.83
2023-05-13T05:46:11.119Z,76.75
2023-05-13T05:47:11.076Z,76.71
2023-05-13T05:48:11.163Z,76.48
2023-05-13T05:49:12.090Z,76.47
2023-05-13T05:50:11.081Z,76.54
2023-05-13T05:51:11.075Z,76.58
2023-05-13T05:52:11.085Z,76.52
2023-05-13T05:53:11.077Z,76.60
2023-05-13T05:54:11.078Z,76.54
2023-05-13T05:55:11.083Z,76.55
2023-05-13T05:56:11.080Z,76.43
2023-05-13T05:57:11.087Z,76.36
2023-05-13T05:58:14.076Z,76.39
2023-05-13T05:59:11.086Z,76.37
2023-05-13T06:00:11.091Z,76.31
2023-05-13T06:01:11.093Z,76.44
2023-05-13T06:02:11.146Z,76.31
2023-05-13T06:03:11.207Z,76.25
2023-05-13T06:04:11.233Z,76.27
2023-05-13T06:05:11.096Z,76.21
2023-05-13T06:06:11.104Z,76.18
2023-05-13T06:07:11.145Z,76.16
2023-05-13T06:08:11.082Z,76.17
2023-05-13T06:09:11.085Z,76.16
2023-05-13T06:10:11.077Z,76.02
2023-05-13T06:11:11.087Z,75.90
2023-05-13T06:12:11.080Z,75.87
2023-05-13T06:13:11.081Z,75.75
2023-05-13T06:14:11.078Z,75.66
2023-05-13T06:15:14.080Z,75.77
2023-05-13T06:16:11.144Z,75.78
2023-05-13T06:17:11.080Z,75.74
2023-05-13T06:18:11.090Z,75.77
2023-05-13T06:19:11.194Z,75.63
2023-05-13T06:20:11.082Z,75.59
2023-05-13T06:21:11.091Z,75.58
2023-05-13T06:22:11.082Z,75.76
2023-05-13T06:23:11.077Z,75.75
2023-05-13T06:24:11.082Z,75.58
2023-05-13T06:25:11.087Z,75.61
2023-05-13T06:26:11.080Z,75.51
2023-05-13T06:27:11.084Z,75.42
2023-05-13T06:28:12.129Z,75.60
2023-05-13T06:29:11.086Z,75.45
2023-05-13T06:30:11.094Z,75.42
2023-05-13T06:31:11.113Z,75.29
2023-05-13T06:32:11.080Z,75.09
2023-05-13T06:33:11.110Z,75.04
2023-05-13T06:34:11.089Z,75.11
2023-05-13T06:35:11.084Z,75.11
2023-05-13T06:36:11.079Z,75.07
2023-05-13T06:37:11.088Z,75.12
2023-05-13T06:38:11.090Z,75.12
2023-05-13T06:39:11.079Z,75.08
2023-05-13T06:40:11.085Z,75.01
2023-05-13T06:41:11.085Z,74.89
2023-05-13T06:42:13.076Z,74.97
2023-05-13T06:43:11.084Z,74.79
2023-05-13T06:44:11.085Z,74.66
2023-05-13T06:45:11.080Z,74.51
2023-05-13T06:46:11.091Z,74.55
2023-05-13T06:47:11.208Z,74.56
2023-05-13T06:48:11.161Z,74.65
2023-05-13T06:49:11.083Z,74.65
2023-05-13T06:50:11.098Z,74.70
2023-05-13T06:51:11.084Z,74.80
2023-05-13T06:52:15.086Z,75.06
2023-05-13T06:53:11.094Z,75.13
2023-05-13T06:54:11.089Z,74.94
2023-05-13T06:55:11.083Z,74.88
2023-05-13T06:56:11.085Z,74.83
2023-05-13T06:57:11.095Z,74.98
2023-05-13T06:58:11.093Z,75.02
2023-05-13T06:59:11.094Z,75.07
2023-05-13T07:00:11.107Z,75.10
2023-05-13T07:01:11.105Z,74.94
2023-05-13T07:02:13.066Z,74.85
2023-05-13T07:03:11.067Z,74.81
2023-05-13T07:04:11.170Z,74.93
2023-05-13T07:05:11.568Z,74.88
2023-05-13T07:06:11.060Z,74.76
2023-05-13T07:07:11.062Z,74.80
2023-05-13T07:08:13.062Z,74.73
2023-05-13T07:09:12.060Z,74.69
2023-05-13T07:10:11.075Z,74.73
2023-05-13T07:11:11.065Z,74.77
2023-05-13T07:12:11.062Z,74.80
2023-05-13T07:13:11.064Z,74.84
2023-05-13T07:14:11.066Z,74.84
2023-05-13T07:15:11.063Z,74.90
2023-05-13T07:16:11.062Z,74.83
2023-05-13T07:17:11.096Z,74.89
2023-05-13T07:18:11.083Z,74.92
2023-05-13T07:19:11.087Z,74.75
2023-05-13T07:20:11.064Z,74.69
2023-05-13T07:21:11.061Z,74.59
2023-05-13T07:22:11.061Z,74.57
2023-05-13T07:23:11.068Z,74.50
2023-05-13T07:24:11.059Z,74.53
2023-05-13T07:25:11.065Z,74.73
2023-05-13T07:26:11.063Z,74.76
2023-05-13T07:27:11.064Z,74.77
2023-05-13T07:28:11.078Z,74.82
2023-05-13T07:29:11.067Z,74.85
2023-05-13T07:30:11.066Z,74.82
2023-05-13T07:31:11.078Z,74.80
2023-05-13T07:32:11.088Z,74.93
2023-05-13T07:33:11.095Z,75.01
2023-05-13T07:34:11.067Z,75.10
2023-05-13T07:35:11.070Z,75.00
2023-05-13T07:36:11.071Z,75.17
2023-05-13T07:37:11.073Z,74.97
2023-05-13T07:38:11.096Z,74.98
2023-05-13T07:39:12.061Z,74.94
2023-05-13T07:40:11.080Z,75.12
2023-05-13T07:41:11.073Z,75.28
2023-05-13T07:42:11.071Z,75.09
2023-05-13T07:43:11.063Z,75.15
2023-05-13T07:44:15.071Z,75.17
2023-05-13T07:45:11.071Z,75.11
2023-05-13T07:46:11.060Z,75.28
2023-05-13T07:47:11.413Z,75.07
2023-05-13T07:48:11.115Z,74.96
2023-05-13T07:49:12.075Z,74.81
2023-05-13T07:50:11.086Z,75.05
2023-05-13T07:51:11.073Z,74.89
2023-05-13T07:52:11.065Z,74.75
2023-05-13T07:53:11.072Z,74.67
2023-05-13T07:54:11.077Z,74.49
2023-05-13T07:55:11.067Z,74.56
2023-05-13T07:56:11.070Z,74.58
2023-05-13T07:57:11.072Z,74.61
2023-05-13T07:58:11.069Z,74.58
2023-05-13T07:59:11.069Z,74.36
2023-05-13T08:00:11.078Z,74.49
2023-05-13T08:01:11.091Z,74.43
2023-05-13T08:02:11.066Z,74.32
2023-05-13T08:03:11.140Z,74.30
2023-05-13T08:04:11.259Z,74.25
2023-05-13T08:05:11.126Z,74.38
2023-05-13T08:06:11.077Z,74.25
2023-05-13T08:07:11.088Z,74.06
2023-05-13T08:08:11.066Z,74.16
2023-05-13T08:09:11.078Z,74.03
2023-05-13T08:10:11.067Z,74.06
2023-05-13T08:11:11.085Z,73.95
2023-05-13T08:12:11.074Z,73.97
2023-05-13T08:13:11.070Z,73.91
2023-05-13T08:14:11.098Z,73.95
2023-05-13T08:15:11.072Z,73.75
2023-05-13T08:16:11.092Z,73.84
2023-05-13T08:17:11.069Z,73.67
2023-05-13T08:18:11.143Z,73.74
2023-05-13T08:19:11.130Z,73.72
2023-05-13T08:20:11.067Z,73.53
2023-05-13T08:21:11.074Z,73.69
2023-05-13T08:22:11.077Z,73.48
2023-05-13T08:23:11.067Z,73.39
2023-05-13T08:24:11.069Z,73.22
2023-05-13T08:25:11.074Z,73.23
2023-05-13T08:26:11.069Z,73.11
2023-05-13T08:27:11.088Z,73.17
2023-05-13T08:28:11.070Z,72.96
2023-05-13T08:29:11.068Z,72.89
2023-05-13T08:30:11.075Z,72.95
2023-05-13T08:31:13.144Z,73.09
2023-05-13T08:32:11.259Z,73.15
2023-05-13T08:33:13.076Z,72.92
2023-05-13T08:34:11.091Z,72.96
2023-05-13T08:35:11.080Z,72.88
2023-05-13T08:36:11.111Z,72.97
2023-05-13T08:37:11.091Z,72.78
2023-05-13T08:38:11.064Z,72.84
2023-05-13T08:39:11.076Z,72.75
2023-05-13T08:40:11.073Z,72.75
2023-05-13T08:41:15.087Z,72.51
2023-05-13T08:42:11.072Z,72.39
2023-05-13T08:43:11.070Z,72.39
2023-05-13T08:44:11.068Z,72.37
2023-05-13T08:45:11.078Z,72.33
2023-05-13T08:46:13.139Z,72.16
2023-05-13T08:47:19.073Z,72.03
2023-05-13T08:48:11.117Z,72.07
2023-05-13T08:49:11.081Z,72.05
2023-05-13T08:50:11.073Z,72.15
2023-05-13T08:51:11.075Z,72.02
2023-05-13T08:52:11.081Z,71.83
2023-05-13T08:53:11.076Z,71.81
2023-05-13T08:54:11.109Z,71.77
2023-05-13T08:55:11.082Z,71.53
2023-05-13T08:56:11.073Z,71.48
2023-05-13T08:57:11.078Z,71.59
2023-05-13T08:58:11.096Z,71.39
2023-05-13T08:59:11.084Z,71.31
2023-05-13T09:00:11.080Z,71.06
2023-05-13T09:01:11.130Z,71.04
2023-05-13T09:02:11.077Z,71.11
2023-05-13T09:03:11.113Z,71.22
2023-05-13T09:04:11.078Z,71.08
2023-05-13T09:05:13.131Z,70.99
2023-05-13T09:06:11.075Z,70.95
2023-05-13T09:07:11.083Z,70.71
2023-05-13T09:08:11.107Z,70.34
2023-05-13T09:09:11.078Z,70.34
2023-05-13T09:10:11.079Z,70.33
2023-05-13T09:11:11.080Z,70.34
2023-05-13T09:12:11.078Z,70.34
2023-05-13T09:13:11.076Z,70.38
2023-05-13T09:14:12.080Z,70.54
2023-05-13T09:15:15.079Z,70.42
2023-05-13T09:16:11.125Z,70.29
2023-05-13T09:17:11.079Z,70.15
2023-05-13T09:18:11.204Z,70.00
2023-05-13T09:19:11.214Z,70.08
2023-05-13T09:20:11.091Z,70.03
2023-05-13T09:21:19.082Z,69.86
2023-05-13T09:22:17.080Z,69.69
2023-05-13T09:23:11.112Z,69.66
2023-05-13T09:24:13.135Z,69.59
2023-05-13T09:25:13.118Z,69.33
2023-05-13T09:26:19.088Z,69.29
2023-05-13T09:27:11.085Z,69.28
2023-05-13T09:28:13.078Z,69.31
2023-05-13T09:29:19.085Z,69.29
2023-05-13T09:30:11.083Z,69.24
2023-05-13T09:31:11.088Z,68.98
2023-05-13T09:32:11.078Z,68.99
2023-05-13T09:33:17.134Z,69.11
2023-05-13T09:34:11.084Z,69.35
2023-05-13T09:35:11.072Z,69.15
2023-05-13T09:36:11.077Z,68.96
2023-05-13T09:37:11.087Z,69.06
2023-05-13T09:38:15.074Z,69.26
2023-05-13T09:39:11.085Z,69.35
2023-05-13T09:40:12.088Z,69.23
2023-05-13T09:41:11.080Z,69.32
2023-05-13T09:42:16.079Z,69.37
2023-05-13T09:43:11.103Z,69.29
2023-05-13T09:44:11.077Z,69.33
2023-05-13T09:45:11.080Z,69.26
2023-05-13T09:46:11.077Z,69.34
2023-05-13T09:47:16.383Z,69.27
2023-05-13T09:48:11.104Z,69.29
2023-05-13T09:49:11.076Z,69.18
2023-05-13T09:50:11.081Z,69.01
2023-05-13T09:51:11.076Z,68.86
2023-05-13T09:52:16.079Z,68.98
2023-05-13T09:53:13.100Z,68.77
2023-05-13T09:54:12.100Z,68.63
2023-05-13T09:55:11.090Z,68.32
2023-05-13T09:56:11.089Z,68.34
2023-05-13T09:57:12.082Z,68.22
2023-05-13T09:58:13.080Z,68.09
2023-05-13T09:59:11.110Z,67.93
2023-05-13T10:00:21.071Z,67.88
2023-05-13T10:01:13.116Z,67.80
2023-05-13T10:02:12.065Z,67.70
2023-05-13T10:03:11.161Z,67.49
2023-05-13T10:04:11.117Z,67.23
2023-05-13T10:05:11.064Z,66.96
2023-05-13T10:06:11.070Z,67.02
2023-05-13T10:07:11.066Z,66.83
2023-05-13T10:08:11.066Z,66.79
2023-05-13T10:09:11.078Z,66.66
2023-05-13T10:10:11.071Z,66.53
2023-05-13T10:11:11.068Z,66.66
2023-05-13T10:12:13.064Z,66.98
2023-05-13T10:13:11.091Z,67.22
2023-05-13T10:14:11.061Z,67.23
2023-05-13T10:15:11.078Z,66.95
2023-05-13T10:16:11.114Z,66.84
2023-05-13T10:17:11.068Z,66.66
2023-05-13T10:18:11.093Z,66.51
2023-05-13T10:19:11.188Z,67.14
2023-05-13T10:20:11.067Z,67.41
2023-05-13T10:21:11.076Z,67.27
2023-05-13T10:22:11.065Z,67.11
2023-05-13T10:23:11.071Z,66.87
2023-05-13T10:24:11.074Z,66.79
2023-05-13T10:25:11.066Z,67.22
2023-05-13T10:26:11.068Z,67.14
2023-05-13T10:27:12.071Z,66.99
2023-05-13T10:28:11.066Z,66.91
2023-05-13T10:29:11.070Z,66.74
2023-05-13T10:30:13.083Z,66.72
2023-05-13T10:31:11.067Z,66.62
2023-05-13T10:32:11.147Z,66.57
2023-05-13T10:33:11.096Z,66.44
2023-05-13T10:34:11.066Z,66.31
2023-05-13T10:35:17.087Z,66.11
2023-05-13T10:36:19.072Z,66.64
2023-05-13T10:37:22.063Z,66.54
2023-05-13T10:38:22.080Z,66.41
2023-05-13T10:39:19.066Z,66.40
2023-05-13T10:40:22.469Z,66.33
2023-05-13T10:41:20.066Z,66.02
2023-05-13T10:42:19.075Z,65.94
2023-05-13T10:43:20.064Z,65.80
2023-05-13T10:44:11.062Z,65.86
2023-05-13T10:45:11.095Z,65.77
2023-05-13T10:46:13.131Z,66.14
2023-05-13T10:47:11.097Z,66.06
2023-05-13T10:48:12.201Z,66.93
2023-05-13T10:49:15.067Z,67.07
2023-05-13T10:50:22.329Z,66.69
2023-05-13T10:51:13.071Z,66.50
2023-05-13T10:52:14.072Z,66.45
2023-05-13T10:53:15.065Z,66.71
2023-05-13T10:54:19.065Z,66.96
2023-05-13T10:55:18.062Z,67.07
2023-05-13T10:56:13.074Z,66.52
2023-05-13T10:57:11.065Z,66.30
2023-05-13T10:58:14.070Z,66.29
2023-05-13T10:59:11.071Z,66.15
2023-05-13T11:00:13.066Z,65.77
2023-05-13T11:01:15.138Z,65.40
2023-05-13T11:02:19.088Z,65.48
2023-05-13T11:03:18.357Z,65.40
2023-05-13T11:04:16.069Z,65.15
2023-05-13T11:05:15.063Z,65.21
2023-05-13T11:06:16.092Z,65.14
2023-05-13T11:07:15.071Z,65.10
2023-05-13T11:08:11.067Z,65.17
2023-05-13T11:09:15.068Z,65.31
2023-05-13T11:10:19.140Z,65.12
2023-05-13T11:11:19.074Z,65.06
2023-05-13T11:12:15.081Z,64.70
2023-05-13T11:13:19.077Z,64.51
2023-05-13T11:14:18.108Z,64.24
2023-05-13T11:15:19.072Z,64.04
2023-05-13T11:16:13.088Z,63.75
2023-05-13T11:17:11.070Z,63.67
2023-05-13T11:18:11.146Z,63.58
2023-05-13T11:19:22.069Z,63.44
2023-05-13T11:20:11.064Z,63.24
2023-05-13T11:21:11.078Z,63.95
2023-05-13T11:22:14.075Z,63.84
2023-05-13T11:23:16.081Z,63.16
2023-05-13T11:24:11.079Z,63.03
2023-05-13T11:25:11.079Z,62.71
2023-05-13T11:26:17.166Z,62.56
2023-05-13T11:27:15.075Z,62.62
2023-05-13T11:28:14.080Z,63.04
2023-05-13T11:29:11.080Z,62.62
2023-05-13T11:30:19.271Z,62.36
2023-05-13T11:31:17.114Z,62.15
2023-05-13T11:32:11.079Z,62.15
2023-05-13T11:33:15.105Z,61.94
2023-05-13T11:34:17.075Z,62.40
2023-05-13T11:35:11.076Z,62.30
2023-05-13T11:36:11.078Z,62.17
2023-05-13T11:37:11.083Z,61.85
2023-05-13T11:38:15.081Z,61.73
2023-05-13T11:39:18.084Z,61.69
2023-05-13T11:40:11.075Z,61.64
2023-05-13T11:41:11.076Z,61.92
2023-05-13T11:42:11.099Z,61.90
2023-05-13T11:43:11.090Z,61.78
2023-05-13T11:44:11.076Z,61.96
2023-05-13T11:45:11.076Z,62.00
2023-05-13T11:46:11.127Z,61.58
2023-05-13T11:47:11.079Z,61.18
2023-05-13T11:48:17.074Z,60.79
2023-05-13T11:49:11.074Z,60.84
2023-05-13T11:50:20.072Z,60.82
2023-05-13T11:51:11.082Z,60.75
2023-05-13T11:52:14.074Z,60.96
2023-05-13T11:53:11.103Z,60.73
2023-05-13T11:54:12.093Z,60.59
2023-05-13T11:55:11.081Z,60.37
2023-05-13T11:56:11.090Z,59.94
2023-05-13T11:57:22.115Z,59.72
2023-05-13T11:58:13.083Z,59.45
2023-05-13T11:59:15.083Z,59.19
2023-05-13T12:00:11.090Z,59.32
2023-05-13T12:01:15.092Z,58.82
2023-05-13T12:02:11.129Z,58.93
2023-05-13T12:03:13.174Z,58.93
2023-05-13T12:04:11.081Z,59.08
2023-05-13T12:05:11.140Z,59.44
2023-05-13T12:06:11.078Z,59.20
2023-05-13T12:07:13.097Z,59.15
2023-05-13T12:08:11.089Z,58.96
2023-05-13T12:09:11.090Z,58.58
2023-05-13T12:10:11.086Z,58.35
2023-05-13T12:11:11.084Z,58.48
2023-05-13T12:12:11.094Z,58.90
2023-05-13T12:13:11.095Z,58.91
2023-05-13T12:14:11.091Z,59.10
2023-05-13T12:15:16.098Z,58.70
2023-05-13T12:16:11.124Z,58.96
2023-05-13T12:17:11.082Z,59.24
2023-05-13T12:18:11.101Z,58.74
2023-05-13T12:19:11.168Z,58.25
2023-05-13T12:20:20.094Z,58.16
2023-05-13T12:21:17.086Z,58.28
2023-05-13T12:22:11.085Z,58.29
2023-05-13T12:23:11.090Z,57.84
2023-05-13T12:24:17.084Z,57.61
2023-05-13T12:25:19.155Z,57.69
2023-05-13T12:26:11.087Z,57.95
2023-05-13T12:27:11.729Z,58.26
2023-05-13T12:28:18.146Z,58.08
2023-05-13T12:29:11.087Z,58.16
2023-05-13T12:30:15.091Z,58.25
2023-05-13T12:31:16.157Z,58.10
2023-05-13T12:32:11.081Z,57.96
2023-05-13T12:33:19.086Z,57.76
2023-05-13T12:34:11.092Z,57.73
2023-05-13T12:35:15.100Z,57.51
2023-05-13T12:36:19.140Z,57.40
2023-05-13T12:37:13.165Z,57.49
2023-05-13T12:38:14.086Z,57.69
2023-05-13T12:39:11.106Z,57.60
2023-05-13T12:40:13.086Z,57.25
2023-05-13T12:41:13.085Z,57.39
2023-05-13T12:42:15.097Z,57.41
2023-05-13T12:43:11.091Z,57.23
2023-05-13T12:44:12.082Z,57.17
2023-05-13T12:45:11.086Z,58.32
2023-05-13T12:46:11.106Z,57.30
2023-05-13T12:47:11.156Z,57.05
2023-05-13T12:48:11.127Z,57.17
2023-05-13T12:49:11.089Z,57.15
2023-05-13T12:50:11.092Z,56.62
2023-05-13T12:51:11.085Z,56.56
2023-05-13T12:52:11.092Z,56.66